createdAt,value
2018-08-23T00:00:43.096Z,20.30
2018-08-23T00:03:17.715Z,13.60
2018-08-23T00:05:54.338Z,13.83
2018-08-23T00:08:24.529Z,22.67
2018-08-23T00:10:54.621Z,17.70
2018-08-23T00:13:24.132Z,11.57
2018-08-23T00:15:53.869Z,14.30
2018-08-23T00:18:23.138Z,14.70
2018-08-23T00:20:52.440Z,18.50
2018-08-23T00:23:22.775Z,13.00
2018-08-23T00:25:52.770Z,9.47
2018-08-23T00:28:22.180Z,12.13
2018-08-23T00:30:51.651Z,20.90
2018-08-23T00:33:20.917Z,17.60
2018-08-23T00:35:50.324Z,20.57
2018-08-23T00:38:19.601Z,16.87
2018-08-23T00:40:48.861Z,14.50
2018-08-23T00:43:18.257Z,16.67
2018-08-23T00:45:47.719Z,19.40
2018-08-23T00:48:16.969Z,16.60
2018-08-23T00:51:21.867Z,22.40
2018-08-23T00:53:56.410Z,20.47
2018-08-23T00:56:25.728Z,23.53
2018-08-23T00:58:59.085Z,25.60
2018-08-23T01:01:28.527Z,19.30
2018-08-23T01:03:57.819Z,14.13
2018-08-23T01:06:40.385Z,17.53
2018-08-23T01:09:11.332Z,21.43
2018-08-23T01:11:40.534Z,21.17
2018-08-23T01:14:10.157Z,18.10
2018-08-23T01:16:39.378Z,20.30
2018-08-23T01:19:14.109Z,19.33
2018-08-23T01:21:49.579Z,19.23
2018-08-23T01:24:19.009Z,19.07
2018-08-23T01:26:48.623Z,21.40
2018-08-23T01:29:30.070Z,29.53
2018-08-23T01:32:13.096Z,20.10
2018-08-23T01:34:42.394Z,19.00
2018-08-23T01:37:13.862Z,34.77
2018-08-23T01:39:43.129Z,18.63
2018-08-23T01:42:12.524Z,19.67
2018-08-23T01:44:42.760Z,25.00
2018-08-23T01:47:12.212Z,25.07
2018-08-23T01:49:41.657Z,23.30
2018-08-23T01:52:11.259Z,29.43
2018-08-23T01:54:40.497Z,25.83
2018-08-23T01:57:09.920Z,27.03
2018-08-23T01:59:39.149Z,26.60
2018-08-23T02:02:13.844Z,26.53
2018-08-23T02:04:43.253Z,30.97
2018-08-23T02:07:12.596Z,19.60
2018-08-23T02:09:42.218Z,19.27
2018-08-23T02:12:11.451Z,17.87
2018-08-23T02:14:47.380Z,28.77
2018-08-23T02:17:16.866Z,23.27
2018-08-23T02:19:49.410Z,16.70
2018-08-23T02:22:18.881Z,29.17
2018-08-23T02:24:49.183Z,33.13
2018-08-23T02:27:19.840Z,24.93
2018-08-23T02:29:49.588Z,31.13
2018-08-23T02:32:19.182Z,25.60
2018-08-23T02:34:48.996Z,25.17
2018-08-23T02:37:18.715Z,24.17
2018-08-23T02:39:48.125Z,27.33
2018-08-23T02:42:19.137Z,23.37
2018-08-23T02:44:48.582Z,22.00
2018-08-23T02:47:18.043Z,21.00
2018-08-23T02:49:47.723Z,23.30
2018-08-23T02:52:17.118Z,28.30
2018-08-23T02:54:46.487Z,29.90
2018-08-23T02:57:16.114Z,28.97
2018-08-23T02:59:45.550Z,35.17
2018-08-23T03:02:15.457Z,34.40
2018-08-23T03:04:44.880Z,24.23
2018-08-23T03:07:14.258Z,30.23
2018-08-23T03:09:45.015Z,35.07
2018-08-23T03:12:20.401Z,37.20
2018-08-23T03:14:49.807Z,38.03
2018-08-23T03:17:22.271Z,32.90
2018-08-23T03:20:26.591Z,34.70
2018-08-23T03:22:56.916Z,54.57
2018-08-23T03:25:26.757Z,56.13
2018-08-23T03:27:56.548Z,61.60
2018-08-23T03:30:26.190Z,63.43
2018-08-23T03:32:55.515Z,64.60
2018-08-23T03:35:25.070Z,68.43
2018-08-23T03:37:54.387Z,71.60
2018-08-23T03:40:23.773Z,79.23
2018-08-23T03:42:53.110Z,67.10
2018-08-23T03:45:28.456Z,68.90
2018-08-23T03:47:57.726Z,77.37
2018-08-23T03:50:27.041Z,70.33
2018-08-23T03:52:57.303Z,73.70
2018-08-23T03:55:27.021Z,76.20
2018-08-23T03:58:03.168Z,71.30
2018-08-23T04:00:37.965Z,72.23
2018-08-23T04:03:14.085Z,90.87
2018-08-23T04:05:43.388Z,69.23
2018-08-23T04:08:13.306Z,68.93
2018-08-23T04:10:42.653Z,74.90
2018-08-23T04:13:12.189Z,66.17
2018-08-23T04:15:41.416Z,80.23
2018-08-23T04:18:16.930Z,78.93
2018-08-23T04:20:57.636Z,70.40
2018-08-23T04:23:26.966Z,65.10
2018-08-23T04:25:56.244Z,74.50
2018-08-23T04:28:25.528Z,65.37
2018-08-23T04:30:55.203Z,67.83
2018-08-23T04:33:24.502Z,62.23
2018-08-23T04:35:53.866Z,64.10
2018-08-23T04:38:24.392Z,62.13
2018-08-23T04:40:58.434Z,63.60
2018-08-23T04:43:27.953Z,57.73
2018-08-23T04:45:57.285Z,52.80
2018-08-23T04:48:26.634Z,55.33
2018-08-23T04:50:56.166Z,47.63
2018-08-23T04:53:26.381Z,52.50
2018-08-23T04:55:55.616Z,54.60
2018-08-23T04:58:25.291Z,47.53
2018-08-23T05:00:54.553Z,50.30
2018-08-23T05:03:23.935Z,50.20
2018-08-23T05:05:53.470Z,52.10
2018-08-23T05:08:22.764Z,50.03
2018-08-23T05:10:52.094Z,48.20
2018-08-23T05:13:21.547Z,44.70
2018-08-23T05:15:50.864Z,49.33
2018-08-23T05:18:20.782Z,43.93
2018-08-23T05:20:50.305Z,41.43
2018-08-23T05:23:20.545Z,36.43
2018-08-23T05:25:49.805Z,40.90
2018-08-23T05:28:20.680Z,47.43
2018-08-23T05:30:50.425Z,49.73
2018-08-23T05:33:21.122Z,36.57
2018-08-23T05:35:50.610Z,37.87
2018-08-23T05:38:20.604Z,38.30
2018-08-23T05:40:55.350Z,34.83
2018-08-23T05:43:24.636Z,40.97
2018-08-23T05:45:57.063Z,40.87
2018-08-23T05:48:32.520Z,38.90
2018-08-23T05:51:04.820Z,33.10
2018-08-23T05:53:38.320Z,51.23
2018-08-23T05:56:08.283Z,38.27
2018-08-23T05:58:37.885Z,36.40
2018-08-23T06:01:07.482Z,30.97
2018-08-23T06:03:37.858Z,31.63
2018-08-23T06:06:07.625Z,28.73
2018-08-23T06:08:37.547Z,30.70
2018-08-23T06:11:11.425Z,23.83
2018-08-23T06:13:41.030Z,23.47
2018-08-23T06:16:10.318Z,28.70
2018-08-23T06:18:39.850Z,20.50
2018-08-23T06:21:09.174Z,26.73
2018-08-23T06:24:01.794Z,25.43
2018-08-23T06:26:43.759Z,20.13
2018-08-23T06:29:17.661Z,37.77
2018-08-23T06:31:56.200Z,30.37
2018-08-23T06:34:27.045Z,27.10
2018-08-23T06:36:56.341Z,24.90
2018-08-23T06:39:26.075Z,27.53
2018-08-23T06:41:57.804Z,24.87
2018-08-23T06:44:43.710Z,27.70
2018-08-23T06:47:15.592Z,22.83
2018-08-23T06:49:46.593Z,28.90
2018-08-23T06:52:27.219Z,30.80
2018-08-23T06:54:56.807Z,29.77
2018-08-23T06:57:27.761Z,26.90
2018-08-23T06:59:57.341Z,22.20
2018-08-23T07:02:26.670Z,20.17
2018-08-23T07:04:56.164Z,22.87
2018-08-23T07:07:25.519Z,28.73
2018-08-23T07:09:55.061Z,24.00
2018-08-23T07:12:24.580Z,25.30
2018-08-23T07:14:53.932Z,18.70
2018-08-23T07:17:26.483Z,20.43
2018-08-23T07:19:55.843Z,24.00
2018-08-23T07:22:26.206Z,15.70
2018-08-23T07:24:57.034Z,17.07
2018-08-23T07:27:26.333Z,18.03
2018-08-23T07:29:57.887Z,22.80
2018-08-23T07:32:30.326Z,25.23
2018-08-23T07:35:04.374Z,31.83
2018-08-23T07:37:34.966Z,33.13
2018-08-23T07:40:09.449Z,23.37
2018-08-23T07:42:39.855Z,27.83
2018-08-23T07:45:09.978Z,27.80
2018-08-23T07:47:41.161Z,26.80
2018-08-23T07:50:10.587Z,19.67
2018-08-23T07:52:51.933Z,28.33
2018-08-23T07:55:21.235Z,26.80
2018-08-23T07:57:50.701Z,26.50
2018-08-23T08:00:31.819Z,34.50
2018-08-23T08:03:01.263Z,32.17
2018-08-23T08:05:35.047Z,35.53
2018-08-23T08:08:04.469Z,36.53
2018-08-23T08:10:37.103Z,37.97
2018-08-23T08:13:06.678Z,44.67
2018-08-23T08:15:36.009Z,32.97
2018-08-23T08:18:20.720Z,38.63
2018-08-23T08:20:56.193Z,37.57
2018-08-23T08:23:25.723Z,42.60
2018-08-23T08:25:55.286Z,42.27
2018-08-23T08:28:24.980Z,36.77
2018-08-23T08:30:59.961Z,34.70
2018-08-23T08:33:33.738Z,58.43
2018-08-23T08:36:04.025Z,31.20
2018-08-23T08:38:33.885Z,43.33
2018-08-23T08:41:03.124Z,36.50
2018-08-23T08:43:32.397Z,51.23
2018-08-23T08:46:03.530Z,39.30
2018-08-23T08:48:33.941Z,45.13
2018-08-23T08:51:32.117Z,51.87
2018-08-23T08:54:03.172Z,45.50
2018-08-23T08:56:37.757Z,47.07
2018-08-23T08:59:07.043Z,44.80
2018-08-23T09:01:36.709Z,47.33
2018-08-23T09:04:06.094Z,46.17
2018-08-23T09:06:45.782Z,44.27
2018-08-23T09:09:34.812Z,53.27
2018-08-23T09:12:05.457Z,49.23
2018-08-23T09:14:35.418Z,53.53
2018-08-23T09:17:21.307Z,48.70
2018-08-23T09:20:01.275Z,46.43
2018-08-23T09:22:38.354Z,47.63
2018-08-23T09:25:09.824Z,55.73
2018-08-23T09:27:39.370Z,47.90
2018-08-23T09:30:14.674Z,55.53
2018-08-23T09:32:44.500Z,52.63
2018-08-23T09:35:14.070Z,49.90
2018-08-23T09:37:43.518Z,45.20
2018-08-23T09:40:13.636Z,45.97
2018-08-23T09:42:43.029Z,48.40
2018-08-23T09:45:16.196Z,59.30
2018-08-23T09:47:45.733Z,52.27
2018-08-23T09:50:15.270Z,48.90
2018-08-23T09:52:50.035Z,48.70
2018-08-23T09:55:20.983Z,48.63
2018-08-23T09:57:50.417Z,55.13
2018-08-23T10:01:28.886Z,45.03
2018-08-23T10:04:03.661Z,50.43
2018-08-23T10:06:38.177Z,55.03
2018-08-23T10:09:16.398Z,53.93
2018-08-23T10:11:51.175Z,46.50
2018-08-23T10:14:25.746Z,44.87
2018-08-23T10:17:00.709Z,45.67
2018-08-23T10:19:36.430Z,44.23
2018-08-23T10:22:11.233Z,46.23
2018-08-23T10:24:40.535Z,40.23
2018-08-23T10:27:09.860Z,43.70
2018-08-23T10:29:39.369Z,40.03
2018-08-23T10:32:08.716Z,37.97
2018-08-23T10:34:37.942Z,34.17
2018-08-23T10:37:07.623Z,33.90
2018-08-23T10:39:37.053Z,35.43
2018-08-23T10:42:10.581Z,33.70
2018-08-23T10:44:40.005Z,38.67
2018-08-23T10:47:09.415Z,29.43
2018-08-23T10:49:38.762Z,31.23
2018-08-23T10:52:08.089Z,26.10
2018-08-23T10:54:37.525Z,21.90
2018-08-23T10:57:10.308Z,25.30
2018-08-23T10:59:39.898Z,31.93
2018-08-23T11:02:11.389Z,23.27
2018-08-23T11:04:40.721Z,23.83
2018-08-23T11:07:10.064Z,21.33
2018-08-23T11:09:44.775Z,36.63
2018-08-23T11:12:19.715Z,30.57
2018-08-23T11:14:49.299Z,33.77
2018-08-23T11:17:24.005Z,24.67
2018-08-23T11:19:58.662Z,25.17
2018-08-23T11:22:33.417Z,25.63
2018-08-23T11:25:02.998Z,26.90
2018-08-23T11:27:32.297Z,30.70
2018-08-23T11:30:01.727Z,30.23
2018-08-23T11:32:31.236Z,30.33
2018-08-23T11:35:00.644Z,32.33
2018-08-23T11:37:29.872Z,27.97
2018-08-23T11:39:59.618Z,24.83
2018-08-23T11:42:28.980Z,19.43
2018-08-23T11:44:58.321Z,23.30
2018-08-23T11:47:27.720Z,26.97
2018-08-23T11:49:57.052Z,29.87
2018-08-23T11:52:26.446Z,20.50
2018-08-23T11:54:56.009Z,23.63
2018-08-23T11:57:25.369Z,29.70
2018-08-23T11:59:55.132Z,29.83
2018-08-23T12:02:24.797Z,34.60
2018-08-23T12:04:54.259Z,30.03
2018-08-23T12:07:23.722Z,22.57
2018-08-23T12:09:53.479Z,36.43
2018-08-23T12:12:23.292Z,30.90
2018-08-23T12:14:56.150Z,28.77
2018-08-23T12:17:25.429Z,29.17
2018-08-23T12:19:54.957Z,38.00
2018-08-23T12:22:30.346Z,20.60
2018-08-23T12:24:59.809Z,24.37
2018-08-23T12:27:29.110Z,20.57
2018-08-23T12:30:02.076Z,20.50
2018-08-23T12:32:31.599Z,22.60
2018-08-23T12:35:01.567Z,18.83
2018-08-23T12:37:36.101Z,23.93
2018-08-23T12:40:10.779Z,22.77
2018-08-23T12:42:47.427Z,28.27
2018-08-23T12:45:17.225Z,32.50
2018-08-23T12:47:46.868Z,23.57
2018-08-23T12:50:16.784Z,23.67
2018-08-23T12:52:46.334Z,25.13
2018-08-23T12:55:16.009Z,36.10
2018-08-23T12:57:45.691Z,25.73
2018-08-23T13:00:15.274Z,25.43
2018-08-23T13:02:45.371Z,32.93
2018-08-23T13:05:15.220Z,28.83
2018-08-23T13:07:44.609Z,31.77
2018-08-23T13:10:14.169Z,35.10
2018-08-23T13:12:44.292Z,27.10
2018-08-23T13:15:13.813Z,24.17
2018-08-23T13:17:43.654Z,21.67
2018-08-23T13:20:13.339Z,29.70
2018-08-23T13:22:43.162Z,25.63
2018-08-23T13:25:14.305Z,28.67
2018-08-23T13:27:43.907Z,31.83
2018-08-23T13:30:13.303Z,24.37
2018-08-23T13:32:42.823Z,29.60
2018-08-23T13:35:12.221Z,23.93
2018-08-23T13:37:42.077Z,24.27
2018-08-23T13:40:16.515Z,25.90
2018-08-23T13:42:46.592Z,30.83
2018-08-23T13:45:16.554Z,27.63
2018-08-23T13:47:46.278Z,26.63
2018-08-23T13:50:16.101Z,29.47
2018-08-23T13:52:45.868Z,31.67
2018-08-23T13:55:15.761Z,32.80
2018-08-23T13:57:45.629Z,26.67
2018-08-23T14:00:52.023Z,27.53
2018-08-23T14:03:22.723Z,33.50
2018-08-23T14:05:52.474Z,32.90
2018-08-23T14:08:21.986Z,29.47
2018-08-23T14:10:51.682Z,31.03
2018-08-23T14:13:21.286Z,31.30
2018-08-23T14:15:56.017Z,32.77
2018-08-23T14:18:25.418Z,30.70
2018-08-23T14:20:54.830Z,33.23
2018-08-23T14:23:24.347Z,36.10
2018-08-23T14:25:54.017Z,33.63
2018-08-23T14:28:23.523Z,33.27
2018-08-23T14:30:53.552Z,38.00
2018-08-23T14:33:23.165Z,34.20
2018-08-23T14:35:52.875Z,32.27
2018-08-23T14:38:22.486Z,33.77
2018-08-23T14:40:51.974Z,30.40
2018-08-23T14:43:21.521Z,30.47
2018-08-23T14:45:51.428Z,32.90
2018-08-23T14:48:21.526Z,30.60
2018-08-23T14:50:54.037Z,29.70
2018-08-23T14:53:29.853Z,26.37
2018-08-23T14:56:04.359Z,32.83
2018-08-23T14:58:33.734Z,29.50
2018-08-23T15:01:03.080Z,31.33
2018-08-23T15:03:32.440Z,38.20
2018-08-23T15:06:01.740Z,29.43
2018-08-23T15:08:31.190Z,33.03
2018-08-23T15:11:01.701Z,34.10
2018-08-23T15:13:31.202Z,26.57
2018-08-23T15:16:00.659Z,25.70
2018-08-23T15:18:30.022Z,23.53
2018-08-23T15:20:59.413Z,25.97
2018-08-23T15:23:28.782Z,23.17
2018-08-23T15:25:58.206Z,22.00
2018-08-23T15:28:27.620Z,18.27
2018-08-23T15:30:57.722Z,23.90
2018-08-23T15:33:27.449Z,15.77
2018-08-23T15:36:00.964Z,20.60
2018-08-23T15:38:30.318Z,20.53
2018-08-23T15:41:03.011Z,24.67
2018-08-23T15:43:34.333Z,16.40
2018-08-23T15:46:06.495Z,21.30
2018-08-23T15:48:40.986Z,28.43
2018-08-23T15:51:11.382Z,21.87
2018-08-23T15:53:43.161Z,20.50
2018-08-23T15:56:22.038Z,35.23
2018-08-23T15:58:53.878Z,35.83
2018-08-23T16:01:23.791Z,20.20
2018-08-23T16:03:54.735Z,24.47
2018-08-23T16:06:25.580Z,31.30
2018-08-23T16:08:55.193Z,24.13
2018-08-23T16:11:25.761Z,22.70
2018-08-23T16:13:55.825Z,21.43
2018-08-23T16:16:31.066Z,23.03
2018-08-23T16:19:05.615Z,17.43
2018-08-23T16:21:34.898Z,20.37
2018-08-23T16:24:04.350Z,20.57
2018-08-23T16:26:38.946Z,21.73
2018-08-23T16:29:09.271Z,17.50
2018-08-23T16:31:38.812Z,17.13
2018-08-23T16:34:08.258Z,13.50
2018-08-23T16:36:37.694Z,23.53
2018-08-23T16:39:07.911Z,14.57
2018-08-23T16:41:37.287Z,15.90
2018-08-23T16:44:06.604Z,19.27
2018-08-23T16:46:35.890Z,15.50
2018-08-23T16:49:05.207Z,16.60
2018-08-23T16:51:34.463Z,23.43
2018-08-23T16:54:06.091Z,16.50
2018-08-23T16:56:35.483Z,14.80
2018-08-23T16:59:06.218Z,15.13
2018-08-23T17:01:36.549Z,16.23
2018-08-23T17:04:06.083Z,12.27
2018-08-23T17:06:35.327Z,14.73
2018-08-23T17:09:12.336Z,13.37
2018-08-23T17:11:45.509Z,13.17
2018-08-23T17:14:16.440Z,15.80
2018-08-23T17:16:51.440Z,13.60
2018-08-23T17:19:21.370Z,16.17
2018-08-23T17:21:51.411Z,17.13
2018-08-23T17:24:23.399Z,10.80
2018-08-23T17:26:53.218Z,12.60
2018-08-23T17:29:22.798Z,18.80
2018-08-23T17:31:53.098Z,13.77
2018-08-23T17:34:23.500Z,13.77
2018-08-23T17:36:53.864Z,13.03
2018-08-23T17:39:23.544Z,16.53
2018-08-23T17:41:53.265Z,16.43
2018-08-23T17:44:22.767Z,18.80
2018-08-23T17:46:52.528Z,15.53
2018-08-23T17:49:22.550Z,15.40
2018-08-23T17:51:52.342Z,19.77
2018-08-23T17:54:21.836Z,17.13
2018-08-23T17:56:51.702Z,15.30
2018-08-23T17:59:21.167Z,19.30
2018-08-23T18:01:51.468Z,20.17
2018-08-23T18:04:22.327Z,25.80
2018-08-23T18:06:55.699Z,16.73
2018-08-23T18:09:25.560Z,29.60
2018-08-23T18:11:58.002Z,23.83
2018-08-23T18:14:33.821Z,19.10
2018-08-23T18:17:08.129Z,18.13
2018-08-23T18:19:39.006Z,17.20
2018-08-23T18:22:09.636Z,20.57
2018-08-23T18:24:39.171Z,19.17
2018-08-23T18:27:08.583Z,18.30
2018-08-23T18:29:38.213Z,26.30
2018-08-23T18:32:07.630Z,16.97
2018-08-23T18:34:36.870Z,18.90
2018-08-23T18:37:07.018Z,22.10
2018-08-23T18:39:37.653Z,23.37
2018-08-23T18:42:12.660Z,18.30
2018-08-23T18:44:42.493Z,19.50
2018-08-23T18:47:16.991Z,20.50
2018-08-23T18:49:52.812Z,22.43
2018-08-23T18:52:22.520Z,26.43
2018-08-23T18:54:52.323Z,29.67
2018-08-23T18:57:21.783Z,21.57
2018-08-23T18:59:54.479Z,19.60
2018-08-23T19:02:27.095Z,18.93
2018-08-23T19:05:01.503Z,26.90
2018-08-23T19:07:52.550Z,17.27
2018-08-23T19:10:22.672Z,25.07
2018-08-23T19:13:01.225Z,38.93
2018-08-23T19:15:36.798Z,51.00
2018-08-23T19:18:06.530Z,36.10
2018-08-23T19:20:35.822Z,46.87
2018-08-23T19:23:05.377Z,23.67
2018-08-23T19:25:35.082Z,23.53
2018-08-23T19:28:04.799Z,32.10
2018-08-23T19:30:34.301Z,18.13
2018-08-23T19:33:03.719Z,17.07
2018-08-23T19:35:32.997Z,21.20
2018-08-23T19:38:03.270Z,21.00
2018-08-23T19:40:33.416Z,16.27
2018-08-23T19:43:02.921Z,19.10
2018-08-23T19:45:38.267Z,21.33
2018-08-23T19:48:07.511Z,20.13
2018-08-23T19:50:36.900Z,45.33
2018-08-23T19:53:06.242Z,25.27
2018-08-23T19:55:35.502Z,32.30
2018-08-23T19:58:05.196Z,34.50
2018-08-23T20:00:34.510Z,25.43
2018-08-23T20:03:04.499Z,24.77
2018-08-23T20:05:33.744Z,28.47
2018-08-23T20:08:02.987Z,28.87
2018-08-23T20:10:32.457Z,22.90
2018-08-23T20:13:01.773Z,23.67
2018-08-23T20:15:31.258Z,26.17
2018-08-23T20:18:00.651Z,25.47
2018-08-23T20:20:29.930Z,37.07
2018-08-23T20:23:00.954Z,26.23
2018-08-23T20:25:30.322Z,28.80
2018-08-23T20:28:00.125Z,32.10
2018-08-23T20:30:29.573Z,38.03
2018-08-23T20:32:59.022Z,22.00
2018-08-23T20:35:28.356Z,29.43
2018-08-23T20:37:57.814Z,24.30
2018-08-23T20:40:27.323Z,28.00
2018-08-23T20:42:57.108Z,32.17
2018-08-23T20:45:27.009Z,24.03
2018-08-23T20:47:56.608Z,20.90
2018-08-23T20:50:26.384Z,25.70
2018-08-23T20:52:56.167Z,24.23
2018-08-23T20:55:25.697Z,27.53
2018-08-23T20:57:55.916Z,25.30
2018-08-23T21:00:25.538Z,32.77
2018-08-23T21:02:55.085Z,33.93
2018-08-23T21:05:24.529Z,25.37
2018-08-23T21:07:54.009Z,28.70
2018-08-23T21:10:23.533Z,27.63
2018-08-23T21:12:52.956Z,31.30
2018-08-23T21:15:22.518Z,30.17
2018-08-23T21:17:52.005Z,34.90
2018-08-23T21:20:21.405Z,33.23
2018-08-23T21:22:51.118Z,30.87
2018-08-23T21:25:20.896Z,26.83
2018-08-23T21:27:50.839Z,34.43
2018-08-23T21:30:21.348Z,28.13
2018-08-23T21:32:50.971Z,28.40
2018-08-23T21:35:20.648Z,30.20
2018-08-23T21:37:50.145Z,36.97
2018-08-23T21:40:20.205Z,23.77
2018-08-23T21:42:49.915Z,35.40
2018-08-23T21:45:19.867Z,29.83
2018-08-23T21:47:49.822Z,29.80
2018-08-23T21:50:19.574Z,33.87
2018-08-23T21:52:49.202Z,29.67
2018-08-23T21:55:19.204Z,33.43
2018-08-23T21:57:49.292Z,24.73
2018-08-23T22:00:19.850Z,32.13
2018-08-23T22:02:49.949Z,32.23
2018-08-23T22:05:19.594Z,31.93
2018-08-23T22:07:49.424Z,31.20
2018-08-23T22:10:19.251Z,35.93
2018-08-23T22:12:50.012Z,38.00
2018-08-23T22:15:20.132Z,31.57
2018-08-23T22:17:50.354Z,38.53
2018-08-23T22:20:20.608Z,35.23
2018-08-23T22:22:50.182Z,35.30
2018-08-23T22:25:20.016Z,40.27
2018-08-23T22:27:49.852Z,34.47
2018-08-23T22:30:19.634Z,37.53
2018-08-23T22:32:49.864Z,36.47
2018-08-23T22:35:19.648Z,39.47
2018-08-23T22:37:49.024Z,40.63
2018-08-23T22:40:18.701Z,45.33
2018-08-23T22:42:48.508Z,41.93
2018-08-23T22:45:18.237Z,39.33
2018-08-23T22:47:48.350Z,40.17
2018-08-23T22:50:18.091Z,36.43
2018-08-23T22:52:47.509Z,39.20
2018-08-23T22:55:17.049Z,44.17
2018-08-23T22:57:46.969Z,41.97
2018-08-23T23:00:17.162Z,37.83
2018-08-23T23:02:48.507Z,41.43
2018-08-23T23:05:18.046Z,39.47
2018-08-23T23:07:47.617Z,44.10
2018-08-23T23:10:17.384Z,47.80
2018-08-23T23:12:47.141Z,44.40
2018-08-23T23:15:22.439Z,39.67
2018-08-23T23:17:57.187Z,40.53
2018-08-23T23:20:26.599Z,40.63
2018-08-23T23:22:55.989Z,47.27
2018-08-23T23:25:25.259Z,42.17
2018-08-23T23:27:54.985Z,43.63
2018-08-23T23:30:24.330Z,35.90
2018-08-23T23:32:53.658Z,35.70
2018-08-23T23:35:23.064Z,53.03
2018-08-23T23:37:52.488Z,39.10
2018-08-23T23:40:21.971Z,41.93
2018-08-23T23:42:51.581Z,45.07
2018-08-23T23:45:21.061Z,38.90
2018-08-23T23:47:50.748Z,41.57
2018-08-23T23:50:20.312Z,44.17
2018-08-23T23:52:49.918Z,38.33
2018-08-23T23:55:19.417Z,39.50
2018-08-23T23:57:49.239Z,39.40
